sensor_id;sensor_type;location;lat;lon;timestamp;P1;durP1;ratioP1;P2;durP2;ratioP2
71503;SDS011;59323;50.874;7.028;2022-11-14T00:00:21;12.50;;;5.00;;
71503;SDS011;59323;50.874;7.028;2022-11-14T00:02:47;11.13;;;4.50;;
71503;SDS011;59323;50.874;7.028;2022-11-14T00:05:12;10.70;;;4.97;;
71503;SDS011;59323;50.874;7.028;2022-11-14T00:07:38;10.73;;;4.70;;
71503;SDS011;59323;50.874;7.028;2022-11-14T00:10:03;10.70;;;4.60;;
71503;SDS011;59323;50.874;7.028;2022-11-14T00:12:29;12.50;;;4.63;;
71503;SDS011;59323;50.874;7.028;2022-11-14T00:14:54;11.73;;;5.07;;
71503;SDS011;59323;50.874;7.028;2022-11-14T00:17:20;11.17;;;4.90;;
71503;SDS011;59323;50.874;7.028;2022-11-14T00:19:45;11.73;;;5.03;;
71503;SDS011;59323;50.874;7.028;2022-11-14T00:22:11;10.83;;;4.80;;
71503;SDS011;59323;50.874;7.028;2022-11-14T00:24:36;11.33;;;4.50;;
71503;SDS011;59323;50.874;7.028;2022-11-14T00:27:01;12.97;;;5.30;;
71503;SDS011;59323;50.874;7.028;2022-11-14T00:29:27;11.63;;;4.53;;
71503;SDS011;59323;50.874;7.028;2022-11-14T00:31:52;10.40;;;4.60;;
71503;SDS011;59323;50.874;7.028;2022-11-14T00:34:17;10.63;;;4.80;;
71503;SDS011;59323;50.874;7.028;2022-11-14T00:36:43;9.73;;;4.40;;
71503;SDS011;59323;50.874;7.028;2022-11-14T00:39:12;10.33;;;4.90;;
71503;SDS011;59323;50.874;7.028;2022-11-14T00:41:38;11.68;;;4.82;;
71503;SDS011;59323;50.874;7.028;2022-11-14T00:44:05;11.02;;;4.53;;
71503;SDS011;59323;50.874;7.028;2022-11-14T00:46:30;12.10;;;4.67;;
71503;SDS011;59323;50.874;7.028;2022-11-14T00:48:56;10.17;;;4.57;;
71503;SDS011;59323;50.874;7.028;2022-11-14T00:51:21;11.23;;;4.40;;
71503;SDS011;59323;50.874;7.028;2022-11-14T00:53:46;10.73;;;4.30;;
71503;SDS011;59323;50.874;7.028;2022-11-14T00:56:12;10.77;;;4.23;;
71503;SDS011;59323;50.874;7.028;2022-11-14T00:58:37;10.80;;;4.70;;
71503;SDS011;59323;50.874;7.028;2022-11-14T01:01:02;11.63;;;4.67;;
71503;SDS011;59323;50.874;7.028;2022-11-14T01:03:28;10.67;;;4.70;;
71503;SDS011;59323;50.874;7.028;2022-11-14T01:05:53;11.23;;;4.90;;
71503;SDS011;59323;50.874;7.028;2022-11-14T01:08:18;12.65;;;4.32;;
71503;SDS011;59323;50.874;7.028;2022-11-14T01:10:46;9.90;;;4.17;;
71503;SDS011;59323;50.874;7.028;2022-11-14T01:13:13;9.88;;;4.18;;
71503;SDS011;59323;50.874;7.028;2022-11-14T01:15:41;13.10;;;4.45;;
71503;SDS011;59323;50.874;7.028;2022-11-14T01:18:11;13.20;;;4.60;;
71503;SDS011;59323;50.874;7.028;2022-11-14T01:20:40;10.50;;;4.43;;
71503;SDS011;59323;50.874;7.028;2022-11-14T01:23:07;10.52;;;4.43;;
71503;SDS011;59323;50.874;7.028;2022-11-14T01:25:34;10.68;;;4.40;;
71503;SDS011;59323;50.874;7.028;2022-11-14T01:28:00;11.10;;;4.25;;
71503;SDS011;59323;50.874;7.028;2022-11-14T01:30:26;8.90;;;3.60;;
71503;SDS011;59323;50.874;7.028;2022-11-14T01:32:51;10.83;;;4.53;;
71503;SDS011;59323;50.874;7.028;2022-11-14T01:35:16;10.68;;;4.75;;
71503;SDS011;59323;50.874;7.028;2022-11-14T01:37:41;10.27;;;4.23;;
71503;SDS011;59323;50.874;7.028;2022-11-14T01:40:07;12.03;;;5.40;;
71503;SDS011;59323;50.874;7.028;2022-11-14T01:42:33;16.05;;;8.18;;
71503;SDS011;59323;50.874;7.028;2022-11-14T01:44:58;21.43;;;9.73;;
71503;SDS011;59323;50.874;7.028;2022-11-14T01:47:28;16.97;;;8.07;;
71503;SDS011;59323;50.874;7.028;2022-11-14T01:50:00;17.38;;;8.48;;
71503;SDS011;59323;50.874;7.028;2022-11-14T01:52:32;28.17;;;13.68;;
71503;SDS011;59323;50.874;7.028;2022-11-14T01:55:03;21.55;;;11.35;;
71503;SDS011;59323;50.874;7.028;2022-11-14T01:57:35;18.75;;;9.18;;
71503;SDS011;59323;50.874;7.028;2022-11-14T02:00:07;25.87;;;13.40;;
71503;SDS011;59323;50.874;7.028;2022-11-14T02:02:34;22.23;;;10.50;;
71503;SDS011;59323;50.874;7.028;2022-11-14T02:05:08;20.00;;;10.02;;
71503;SDS011;59323;50.874;7.028;2022-11-14T02:07:37;19.67;;;8.93;;
71503;SDS011;59323;50.874;7.028;2022-11-14T02:10:06;18.00;;;8.18;;
71503;SDS011;59323;50.874;7.028;2022-11-14T02:12:34;15.90;;;7.70;;
71503;SDS011;59323;50.874;7.028;2022-11-14T02:15:00;14.95;;;7.32;;
71503;SDS011;59323;50.874;7.028;2022-11-14T02:17:26;13.63;;;6.40;;
71503;SDS011;59323;50.874;7.028;2022-11-14T02:22:19;11.95;;;5.53;;
71503;SDS011;59323;50.874;7.028;2022-11-14T02:24:44;13.53;;;5.40;;
71503;SDS011;59323;50.874;7.028;2022-11-14T02:27:11;12.47;;;5.40;;
71503;SDS011;59323;50.874;7.028;2022-11-14T02:29:40;11.77;;;5.23;;
71503;SDS011;59323;50.874;7.028;2022-11-14T02:32:06;12.05;;;4.90;;
71503;SDS011;59323;50.874;7.028;2022-11-14T02:34:31;11.07;;;4.23;;
71503;SDS011;59323;50.874;7.028;2022-11-14T02:36:57;9.53;;;4.23;;
71503;SDS011;59323;50.874;7.028;2022-11-14T02:39:23;9.83;;;3.90;;
71503;SDS011;59323;50.874;7.028;2022-11-14T02:41:48;10.03;;;3.90;;
71503;SDS011;59323;50.874;7.028;2022-11-14T02:44:14;9.25;;;3.80;;
71503;SDS011;59323;50.874;7.028;2022-11-14T02:46:39;10.43;;;4.00;;
71503;SDS011;59323;50.874;7.028;2022-11-14T02:49:05;9.50;;;3.73;;
71503;SDS011;59323;50.874;7.028;2022-11-14T02:51:30;10.35;;;3.78;;
71503;SDS011;59323;50.874;7.028;2022-11-14T02:53:56;8.63;;;3.43;;
71503;SDS011;59323;50.874;7.028;2022-11-14T02:56:21;8.47;;;3.43;;
71503;SDS011;59323;50.874;7.028;2022-11-14T02:58:46;9.17;;;3.63;;
71503;SDS011;59323;50.874;7.028;2022-11-14T03:01:12;9.60;;;3.60;;
71503;SDS011;59323;50.874;7.028;2022-11-14T03:03:37;11.57;;;4.20;;
71503;SDS011;59323;50.874;7.028;2022-11-14T03:06:03;11.30;;;3.40;;
71503;SDS011;59323;50.874;7.028;2022-11-14T03:08:29;9.70;;;3.70;;
71503;SDS011;59323;50.874;7.028;2022-11-14T03:10:54;8.63;;;3.55;;
71503;SDS011;59323;50.874;7.028;2022-11-14T03:13:20;8.77;;;3.27;;
71503;SDS011;59323;50.874;7.028;2022-11-14T03:15:46;9.60;;;3.70;;
71503;SDS011;59323;50.874;7.028;2022-11-14T03:18:11;8.13;;;3.40;;
71503;SDS011;59323;50.874;7.028;2022-11-14T03:20:37;9.02;;;3.65;;
71503;SDS011;59323;50.874;7.028;2022-11-14T03:23:02;10.37;;;4.07;;
71503;SDS011;59323;50.874;7.028;2022-11-14T03:25:28;10.20;;;4.07;;
71503;SDS011;59323;50.874;7.028;2022-11-14T03:27:53;8.57;;;3.33;;
71503;SDS011;59323;50.874;7.028;2022-11-14T03:30:18;9.13;;;3.63;;
71503;SDS011;59323;50.874;7.028;2022-11-14T03:32:44;9.37;;;4.00;;
71503;SDS011;59323;50.874;7.028;2022-11-14T03:35:09;8.80;;;4.03;;
71503;SDS011;59323;50.874;7.028;2022-11-14T03:37:35;9.63;;;3.58;;
71503;SDS011;59323;50.874;7.028;2022-11-14T03:40:00;9.17;;;3.43;;
71503;SDS011;59323;50.874;7.028;2022-11-14T03:42:26;9.77;;;3.67;;
71503;SDS011;59323;50.874;7.028;2022-11-14T03:44:51;12.30;;;4.23;;
71503;SDS011;59323;50.874;7.028;2022-11-14T03:47:17;10.35;;;4.32;;
71503;SDS011;59323;50.874;7.028;2022-11-14T03:49:42;10.37;;;4.40;;
71503;SDS011;59323;50.874;7.028;2022-11-14T03:52:09;9.20;;;3.50;;
71503;SDS011;59323;50.874;7.028;2022-11-14T03:54:35;10.17;;;4.00;;
71503;SDS011;59323;50.874;7.028;2022-11-14T03:57:00;8.85;;;3.97;;
71503;SDS011;59323;50.874;7.028;2022-11-14T03:59:26;9.33;;;3.73;;
71503;SDS011;59323;50.874;7.028;2022-11-14T04:01:51;9.90;;;3.50;;
71503;SDS011;59323;50.874;7.028;2022-11-14T04:04:16;11.17;;;4.27;;
71503;SDS011;59323;50.874;7.028;2022-11-14T04:06:42;9.20;;;3.90;;
71503;SDS011;59323;50.874;7.028;2022-11-14T04:09:08;9.17;;;3.87;;
71503;SDS011;59323;50.874;7.028;2022-11-14T04:11:34;8.57;;;3.55;;
71503;SDS011;59323;50.874;7.028;2022-11-14T04:13:59;10.27;;;4.13;;
71503;SDS011;59323;50.874;7.028;2022-11-14T04:16:25;9.02;;;3.90;;
71503;SDS011;59323;50.874;7.028;2022-11-14T04:18:50;9.23;;;4.10;;
71503;SDS011;59323;50.874;7.028;2022-11-14T04:21:15;11.03;;;4.33;;
71503;SDS011;59323;50.874;7.028;2022-11-14T04:23:41;10.73;;;4.23;;
71503;SDS011;59323;50.874;7.028;2022-11-14T04:29:03;10.65;;;4.18;;
71503;SDS011;59323;50.874;7.028;2022-11-14T04:49:38;13.35;;;4.60;;
71503;SDS011;59323;50.874;7.028;2022-11-14T05:17:17;10.43;;;3.97;;
71503;SDS011;59323;50.874;7.028;2022-11-14T05:19:43;11.57;;;4.40;;
71503;SDS011;59323;50.874;7.028;2022-11-14T06:00:30;10.00;;;3.80;;
71503;SDS011;59323;50.874;7.028;2022-11-14T06:03:21;9.13;;;3.67;;
71503;SDS011;59323;50.874;7.028;2022-11-14T06:05:48;11.38;;;4.80;;
71503;SDS011;59323;50.874;7.028;2022-11-14T06:08:13;12.60;;;4.57;;
71503;SDS011;59323;50.874;7.028;2022-11-14T06:10:38;11.73;;;4.20;;
71503;SDS011;59323;50.874;7.028;2022-11-14T06:13:04;10.37;;;4.30;;
71503;SDS011;59323;50.874;7.028;2022-11-14T06:15:29;12.43;;;4.23;;
71503;SDS011;59323;50.874;7.028;2022-11-14T06:17:54;13.20;;;4.07;;
71503;SDS011;59323;50.874;7.028;2022-11-14T06:20:21;8.60;;;3.95;;
71503;SDS011;59323;50.874;7.028;2022-11-14T06:22:47;11.80;;;4.33;;
71503;SDS011;59323;50.874;7.028;2022-11-14T06:25:12;11.33;;;3.93;;
71503;SDS011;59323;50.874;7.028;2022-11-14T06:27:37;12.23;;;4.50;;
71503;SDS011;59323;50.874;7.028;2022-11-14T06:30:03;13.57;;;4.93;;
71503;SDS011;59323;50.874;7.028;2022-11-14T06:32:28;11.00;;;4.13;;
71503;SDS011;59323;50.874;7.028;2022-11-14T06:34:54;12.97;;;4.50;;
71503;SDS011;59323;50.874;7.028;2022-11-14T06:37:19;9.53;;;4.13;;
71503;SDS011;59323;50.874;7.028;2022-11-14T06:39:44;11.13;;;4.47;;
71503;SDS011;59323;50.874;7.028;2022-11-14T06:42:10;11.10;;;4.60;;
71503;SDS011;59323;50.874;7.028;2022-11-14T06:44:35;12.03;;;5.17;;
71503;SDS011;59323;50.874;7.028;2022-11-14T06:47:00;14.77;;;4.97;;
71503;SDS011;59323;50.874;7.028;2022-11-14T06:49:25;13.23;;;4.97;;
71503;SDS011;59323;50.874;7.028;2022-11-14T06:51:51;11.05;;;4.43;;
71503;SDS011;59323;50.874;7.028;2022-11-14T06:54:17;11.02;;;4.70;;
71503;SDS011;59323;50.874;7.028;2022-11-14T06:56:42;10.60;;;4.83;;
71503;SDS011;59323;50.874;7.028;2022-11-14T06:59:08;12.83;;;4.83;;
71503;SDS011;59323;50.874;7.028;2022-11-14T07:01:33;13.37;;;4.47;;
71503;SDS011;59323;50.874;7.028;2022-11-14T07:03:59;10.57;;;4.55;;
71503;SDS011;59323;50.874;7.028;2022-11-14T07:06:26;13.13;;;4.63;;
71503;SDS011;59323;50.874;7.028;2022-11-14T07:08:53;12.18;;;5.22;;
71503;SDS011;59323;50.874;7.028;2022-11-14T07:11:21;14.13;;;5.78;;
71503;SDS011;59323;50.874;7.028;2022-11-14T07:13:54;15.10;;;6.32;;
71503;SDS011;59323;50.874;7.028;2022-11-14T07:16:28;12.98;;;6.30;;
71503;SDS011;59323;50.874;7.028;2022-11-14T07:18:55;14.60;;;5.67;;
71503;SDS011;59323;50.874;7.028;2022-11-14T07:21:22;12.68;;;5.93;;
71503;SDS011;59323;50.874;7.028;2022-11-14T07:23:47;14.77;;;5.47;;
71503;SDS011;59323;50.874;7.028;2022-11-14T07:26:12;14.18;;;5.93;;
71503;SDS011;59323;50.874;7.028;2022-11-14T07:28:38;12.83;;;5.73;;
71503;SDS011;59323;50.874;7.028;2022-11-14T07:31:06;16.43;;;7.23;;
71503;SDS011;59323;50.874;7.028;2022-11-14T07:33:33;15.82;;;6.60;;
71503;SDS011;59323;50.874;7.028;2022-11-14T07:35:59;15.98;;;6.72;;
71503;SDS011;59323;50.874;7.028;2022-11-14T07:38:25;13.70;;;6.30;;
71503;SDS011;59323;50.874;7.028;2022-11-14T07:43:19;15.03;;;6.17;;
71503;SDS011;59323;50.874;7.028;2022-11-14T07:45:45;17.67;;;7.03;;
71503;SDS011;59323;50.874;7.028;2022-11-14T07:48:10;15.57;;;6.40;;
71503;SDS011;59323;50.874;7.028;2022-11-14T07:50:35;15.87;;;7.03;;
71503;SDS011;59323;50.874;7.028;2022-11-14T07:53:02;16.30;;;7.10;;
71503;SDS011;59323;50.874;7.028;2022-11-14T07:55:27;16.10;;;7.45;;
71503;SDS011;59323;50.874;7.028;2022-11-14T07:57:52;15.40;;;6.53;;
71503;SDS011;59323;50.874;7.028;2022-11-14T08:00:19;16.77;;;7.40;;
71503;SDS011;59323;50.874;7.028;2022-11-14T08:02:45;16.63;;;6.72;;
71503;SDS011;59323;50.874;7.028;2022-11-14T08:05:19;15.15;;;6.82;;
71503;SDS011;59323;50.874;7.028;2022-11-14T08:07:44;18.47;;;7.37;;
71503;SDS011;59323;50.874;7.028;2022-11-14T08:10:16;17.98;;;7.20;;
71503;SDS011;59323;50.874;7.028;2022-11-14T08:13:05;19.40;;;7.80;;
71503;SDS011;59323;50.874;7.028;2022-11-14T08:15:30;16.85;;;7.95;;
71503;SDS011;59323;50.874;7.028;2022-11-14T08:17:56;20.27;;;8.10;;
71503;SDS011;59323;50.874;7.028;2022-11-14T08:20:23;19.67;;;7.43;;
71503;SDS011;59323;50.874;7.028;2022-11-14T08:22:54;19.77;;;8.57;;
71503;SDS011;59323;50.874;7.028;2022-11-14T08:25:26;19.02;;;8.25;;
71503;SDS011;59323;50.874;7.028;2022-11-14T08:27:54;17.20;;;7.40;;
71503;SDS011;59323;50.874;7.028;2022-11-14T08:30:19;17.70;;;7.55;;
71503;SDS011;59323;50.874;7.028;2022-11-14T08:32:45;17.73;;;8.07;;
71503;SDS011;59323;50.874;7.028;2022-11-14T08:35:10;19.60;;;7.63;;
71503;SDS011;59323;50.874;7.028;2022-11-14T08:37:35;22.90;;;8.73;;
71503;SDS011;59323;50.874;7.028;2022-11-14T08:40:01;20.00;;;8.80;;
71503;SDS011;59323;50.874;7.028;2022-11-14T08:42:27;19.10;;;7.80;;
71503;SDS011;59323;50.874;7.028;2022-11-14T08:44:52;20.98;;;8.82;;
71503;SDS011;59323;50.874;7.028;2022-11-14T08:47:18;21.70;;;8.77;;
71503;SDS011;59323;50.874;7.028;2022-11-14T08:49:43;19.60;;;8.70;;
71503;SDS011;59323;50.874;7.028;2022-11-14T08:52:09;18.67;;;8.15;;
71503;SDS011;59323;50.874;7.028;2022-11-14T08:54:34;23.77;;;9.13;;
71503;SDS011;59323;50.874;7.028;2022-11-14T08:56:59;22.27;;;8.43;;
71503;SDS011;59323;50.874;7.028;2022-11-14T08:59:25;22.47;;;9.13;;
71503;SDS011;59323;50.874;7.028;2022-11-14T09:01:50;22.20;;;9.07;;
71503;SDS011;59323;50.874;7.028;2022-11-14T09:04:15;20.45;;;9.38;;
71503;SDS011;59323;50.874;7.028;2022-11-14T09:06:41;25.07;;;9.20;;
71503;SDS011;59323;50.874;7.028;2022-11-14T09:09:06;22.73;;;9.00;;
71503;SDS011;59323;50.874;7.028;2022-11-14T09:11:31;21.47;;;9.40;;
71503;SDS011;59323;50.874;7.028;2022-11-14T09:13:57;23.13;;;9.97;;
71503;SDS011;59323;50.874;7.028;2022-11-14T09:16:22;26.23;;;9.97;;
71503;SDS011;59323;50.874;7.028;2022-11-14T09:18:47;24.35;;;10.10;;
71503;SDS011;59323;50.874;7.028;2022-11-14T09:21:13;25.43;;;11.00;;
71503;SDS011;59323;50.874;7.028;2022-11-14T09:23:39;29.57;;;10.37;;
71503;SDS011;59323;50.874;7.028;2022-11-14T09:26:05;26.63;;;11.15;;
71503;SDS011;59323;50.874;7.028;2022-11-14T09:28:31;30.60;;;11.80;;
71503;SDS011;59323;50.874;7.028;2022-11-14T09:31:00;31.73;;;11.20;;
71503;SDS011;59323;50.874;7.028;2022-11-14T09:33:30;27.52;;;10.45;;
71503;SDS011;59323;50.874;7.028;2022-11-14T09:35:56;28.60;;;11.67;;
71503;SDS011;59323;50.874;7.028;2022-11-14T09:38:23;31.63;;;11.63;;
71503;SDS011;59323;50.874;7.028;2022-11-14T09:40:51;30.93;;;10.70;;
71503;SDS011;59323;50.874;7.028;2022-11-14T09:46:23;32.38;;;12.75;;
71503;SDS011;59323;50.874;7.028;2022-11-14T09:48:51;31.97;;;12.03;;
71503;SDS011;59323;50.874;7.028;2022-11-14T09:51:28;29.30;;;11.20;;
71503;SDS011;59323;50.874;7.028;2022-11-14T09:56:49;30.10;;;11.13;;
71503;SDS011;59323;50.874;7.028;2022-11-14T09:59:16;29.88;;;10.73;;
71503;SDS011;59323;50.874;7.028;2022-11-14T10:07:53;25.38;;;10.57;;
71503;SDS011;59323;50.874;7.028;2022-11-14T10:10:39;31.20;;;11.20;;
71503;SDS011;59323;50.874;7.028;2022-11-14T10:13:16;29.73;;;10.90;;
71503;SDS011;59323;50.874;7.028;2022-11-14T10:15:53;30.97;;;11.30;;
71503;SDS011;59323;50.874;7.028;2022-11-14T10:18:32;31.15;;;10.90;;
71503;SDS011;59323;50.874;7.028;2022-11-14T10:40:17;25.85;;;10.43;;
71503;SDS011;59323;50.874;7.028;2022-11-14T10:42:47;31.80;;;10.70;;
71503;SDS011;59323;50.874;7.028;2022-11-14T10:45:54;29.48;;;11.00;;
71503;SDS011;59323;50.874;7.028;2022-11-14T10:48:34;27.25;;;10.38;;
71503;SDS011;59323;50.874;7.028;2022-11-14T10:56:20;28.67;;;10.87;;
71503;SDS011;59323;50.874;7.028;2022-11-14T10:58:45;30.20;;;10.93;;
71503;SDS011;59323;50.874;7.028;2022-11-14T11:04:10;27.73;;;10.35;;
71503;SDS011;59323;50.874;7.028;2022-11-14T11:06:48;27.35;;;10.75;;
71503;SDS011;59323;50.874;7.028;2022-11-14T11:09:16;27.92;;;11.50;;
71503;SDS011;59323;50.874;7.028;2022-11-14T11:12:02;29.23;;;11.17;;
71503;SDS011;59323;50.874;7.028;2022-11-14T11:14:29;28.58;;;11.18;;
71503;SDS011;59323;50.874;7.028;2022-11-14T11:19:37;30.70;;;11.35;;
71503;SDS011;59323;50.874;7.028;2022-11-14T11:22:03;26.45;;;10.52;;
71503;SDS011;59323;50.874;7.028;2022-11-14T11:24:46;28.97;;;10.80;;
71503;SDS011;59323;50.874;7.028;2022-11-14T11:30:00;27.03;;;11.20;;
71503;SDS011;59323;50.874;7.028;2022-11-14T11:32:47;25.27;;;10.88;;
71503;SDS011;59323;50.874;7.028;2022-11-14T11:35:14;26.83;;;10.77;;
71503;SDS011;59323;50.874;7.028;2022-11-14T11:37:43;23.63;;;10.23;;
71503;SDS011;59323;50.874;7.028;2022-11-14T11:40:22;30.33;;;11.38;;
71503;SDS011;59323;50.874;7.028;2022-11-14T11:45:18;29.48;;;11.93;;
71503;SDS011;59323;50.874;7.028;2022-11-14T11:47:47;28.93;;;11.33;;
71503;SDS011;59323;50.874;7.028;2022-11-14T11:50:20;23.20;;;10.73;;
71503;SDS011;59323;50.874;7.028;2022-11-14T11:55:40;26.75;;;10.75;;
71503;SDS011;59323;50.874;7.028;2022-11-14T12:00:33;26.93;;;11.63;;
71503;SDS011;59323;50.874;7.028;2022-11-14T12:02:58;27.35;;;11.18;;
71503;SDS011;59323;50.874;7.028;2022-11-14T12:05:34;27.20;;;11.63;;
71503;SDS011;59323;50.874;7.028;2022-11-14T12:10:59;31.33;;;12.30;;
71503;SDS011;59323;50.874;7.028;2022-11-14T12:13:47;29.67;;;12.25;;
71503;SDS011;59323;50.874;7.028;2022-11-14T12:30:22;28.25;;;11.05;;
71503;SDS011;59323;50.874;7.028;2022-11-14T12:35:24;29.83;;;12.10;;
71503;SDS011;59323;50.874;7.028;2022-11-14T12:37:54;25.70;;;10.90;;
71503;SDS011;59323;50.874;7.028;2022-11-14T12:42:53;27.08;;;11.13;;
71503;SDS011;59323;50.874;7.028;2022-11-14T12:50:54;23.70;;;10.23;;
71503;SDS011;59323;50.874;7.028;2022-11-14T13:27:26;26.70;;;10.88;;
71503;SDS011;59323;50.874;7.028;2022-11-14T13:29:55;31.42;;;12.40;;
71503;SDS011;59323;50.874;7.028;2022-11-14T13:38:10;28.13;;;11.50;;
71503;SDS011;59323;50.874;7.028;2022-11-14T13:43:25;32.35;;;12.20;;
71503;SDS011;59323;50.874;7.028;2022-11-14T13:46:09;29.60;;;11.80;;
71503;SDS011;59323;50.874;7.028;2022-11-14T13:51:30;31.15;;;12.52;;
71503;SDS011;59323;50.874;7.028;2022-11-14T13:53:57;26.30;;;11.15;;
71503;SDS011;59323;50.874;7.028;2022-11-14T13:56:33;27.30;;;11.63;;
71503;SDS011;59323;50.874;7.028;2022-11-14T14:10:23;27.10;;;11.27;;
71503;SDS011;59323;50.874;7.028;2022-11-14T14:15:08;25.80;;;11.73;;
71503;SDS011;59323;50.874;7.028;2022-11-14T14:20:46;26.48;;;11.02;;
71503;SDS011;59323;50.874;7.028;2022-11-14T14:23:30;29.30;;;11.77;;
71503;SDS011;59323;50.874;7.028;2022-11-14T14:28:50;26.83;;;11.00;;
71503;SDS011;59323;50.874;7.028;2022-11-14T14:31:29;28.73;;;11.63;;
71503;SDS011;59323;50.874;7.028;2022-11-14T14:34:19;29.40;;;12.55;;
71503;SDS011;59323;50.874;7.028;2022-11-14T14:36:52;27.73;;;12.27;;
71503;SDS011;59323;50.874;7.028;2022-11-14T14:41:46;26.48;;;11.23;;
71503;SDS011;59323;50.874;7.028;2022-11-14T14:46:55;25.88;;;11.57;;
71503;SDS011;59323;50.874;7.028;2022-11-14T14:49:22;25.83;;;11.52;;
71503;SDS011;59323;50.874;7.028;2022-11-14T14:51:52;24.92;;;11.48;;
71503;SDS011;59323;50.874;7.028;2022-11-14T14:54:20;26.30;;;11.43;;
71503;SDS011;59323;50.874;7.028;2022-11-14T14:56:57;28.53;;;11.20;;
71503;SDS011;59323;50.874;7.028;2022-11-14T14:59:28;26.95;;;11.23;;
71503;SDS011;59323;50.874;7.028;2022-11-14T15:01:54;26.33;;;11.13;;
71503;SDS011;59323;50.874;7.028;2022-11-14T15:04:25;24.58;;;10.00;;
71503;SDS011;59323;50.874;7.028;2022-11-14T15:06:52;23.83;;;11.68;;
71503;SDS011;59323;50.874;7.028;2022-11-14T15:09:23;23.77;;;11.17;;
71503;SDS011;59323;50.874;7.028;2022-11-14T15:12:00;25.52;;;11.77;;
71503;SDS011;59323;50.874;7.028;2022-11-14T15:14:28;24.58;;;11.50;;
71503;SDS011;59323;50.874;7.028;2022-11-14T15:16:55;22.05;;;10.45;;
71503;SDS011;59323;50.874;7.028;2022-11-14T15:19:23;23.30;;;11.60;;
71503;SDS011;59323;50.874;7.028;2022-11-14T15:22:02;22.60;;;10.43;;
71503;SDS011;59323;50.874;7.028;2022-11-14T15:24:29;24.05;;;12.02;;
71503;SDS011;59323;50.874;7.028;2022-11-14T15:26:55;23.90;;;10.38;;
71503;SDS011;59323;50.874;7.028;2022-11-14T15:29:22;21.60;;;10.47;;
71503;SDS011;59323;50.874;7.028;2022-11-14T15:31:55;24.42;;;11.27;;
71503;SDS011;59323;50.874;7.028;2022-11-14T15:39:43;22.08;;;10.82;;
71503;SDS011;59323;50.874;7.028;2022-11-14T15:42:13;22.23;;;10.50;;
71503;SDS011;59323;50.874;7.028;2022-11-14T15:44:51;24.23;;;11.23;;
71503;SDS011;59323;50.874;7.028;2022-11-14T15:47:18;23.60;;;10.48;;
71503;SDS011;59323;50.874;7.028;2022-11-14T15:49:56;23.90;;;11.45;;
71503;SDS011;59323;50.874;7.028;2022-11-14T15:52:32;22.90;;;11.33;;
71503;SDS011;59323;50.874;7.028;2022-11-14T15:55:18;23.20;;;10.95;;
71503;SDS011;59323;50.874;7.028;2022-11-14T15:57:45;25.10;;;10.52;;
71503;SDS011;59323;50.874;7.028;2022-11-14T16:00:11;20.80;;;10.20;;
71503;SDS011;59323;50.874;7.028;2022-11-14T16:02:56;23.67;;;11.02;;
71503;SDS011;59323;50.874;7.028;2022-11-14T16:05:26;22.83;;;11.10;;
71503;SDS011;59323;50.874;7.028;2022-11-14T16:07:53;23.63;;;10.93;;
71503;SDS011;59323;50.874;7.028;2022-11-14T16:10:19;23.33;;;10.83;;
71503;SDS011;59323;50.874;7.028;2022-11-14T16:12:46;22.90;;;10.80;;
71503;SDS011;59323;50.874;7.028;2022-11-14T16:15:12;19.50;;;10.10;;
71503;SDS011;59323;50.874;7.028;2022-11-14T16:17:38;20.90;;;10.68;;
71503;SDS011;59323;50.874;7.028;2022-11-14T16:20:06;23.53;;;11.60;;
71503;SDS011;59323;50.874;7.028;2022-11-14T16:22:40;21.40;;;10.10;;
71503;SDS011;59323;50.874;7.028;2022-11-14T16:25:20;21.90;;;10.55;;
71503;SDS011;59323;50.874;7.028;2022-11-14T16:27:49;20.60;;;11.25;;
71503;SDS011;59323;50.874;7.028;2022-11-14T16:30:16;21.57;;;10.47;;
71503;SDS011;59323;50.874;7.028;2022-11-14T16:32:43;19.83;;;10.30;;
71503;SDS011;59323;50.874;7.028;2022-11-14T16:35:31;21.20;;;10.07;;
71503;SDS011;59323;50.874;7.028;2022-11-14T16:37:55;22.98;;;10.60;;
71503;SDS011;59323;50.874;7.028;2022-11-14T16:40:22;20.07;;;10.37;;
71503;SDS011;59323;50.874;7.028;2022-11-14T16:42:53;21.75;;;10.60;;
71503;SDS011;59323;50.874;7.028;2022-11-14T16:45:23;24.47;;;10.53;;
71503;SDS011;59323;50.874;7.028;2022-11-14T16:47:50;21.27;;;9.77;;
71503;SDS011;59323;50.874;7.028;2022-11-14T16:50:16;20.30;;;9.55;;
71503;SDS011;59323;50.874;7.028;2022-11-14T16:52:42;22.60;;;10.18;;
71503;SDS011;59323;50.874;7.028;2022-11-14T16:55:08;20.30;;;9.70;;
71503;SDS011;59323;50.874;7.028;2022-11-14T16:57:35;20.95;;;10.20;;
71503;SDS011;59323;50.874;7.028;2022-11-14T17:00:03;20.83;;;9.60;;
71503;SDS011;59323;50.874;7.028;2022-11-14T17:02:29;21.92;;;10.38;;
71503;SDS011;59323;50.874;7.028;2022-11-14T17:04:55;24.73;;;12.47;;
71503;SDS011;59323;50.874;7.028;2022-11-14T17:07:20;22.70;;;11.07;;
71503;SDS011;59323;50.874;7.028;2022-11-14T17:09:45;23.95;;;10.75;;
71503;SDS011;59323;50.874;7.028;2022-11-14T17:12:11;24.13;;;10.90;;
71503;SDS011;59323;50.874;7.028;2022-11-14T17:14:36;18.33;;;10.03;;
71503;SDS011;59323;50.874;7.028;2022-11-14T17:17:01;21.20;;;10.73;;
71503;SDS011;59323;50.874;7.028;2022-11-14T17:19:27;22.93;;;10.53;;
71503;SDS011;59323;50.874;7.028;2022-11-14T17:21:53;19.13;;;9.77;;
71503;SDS011;59323;50.874;7.028;2022-11-14T17:24:19;22.33;;;10.90;;
71503;SDS011;59323;50.874;7.028;2022-11-14T17:26:44;22.55;;;10.43;;
71503;SDS011;59323;50.874;7.028;2022-11-14T17:29:10;21.10;;;9.73;;
71503;SDS011;59323;50.874;7.028;2022-11-14T17:31:36;19.58;;;9.52;;
71503;SDS011;59323;50.874;7.028;2022-11-14T17:34:02;21.33;;;10.50;;
71503;SDS011;59323;50.874;7.028;2022-11-14T17:36:28;19.43;;;10.23;;
71503;SDS011;59323;50.874;7.028;2022-11-14T17:38:54;17.83;;;9.77;;
71503;SDS011;59323;50.874;7.028;2022-11-14T17:41:21;22.92;;;11.15;;
71503;SDS011;59323;50.874;7.028;2022-11-14T17:43:50;20.83;;;9.57;;
71503;SDS011;59323;50.874;7.028;2022-11-14T17:46:17;18.70;;;9.10;;
71503;SDS011;59323;50.874;7.028;2022-11-14T17:48:42;16.42;;;8.18;;
71503;SDS011;59323;50.874;7.028;2022-11-14T17:51:10;17.70;;;8.73;;
71503;SDS011;59323;50.874;7.028;2022-11-14T17:53:36;17.20;;;8.63;;
71503;SDS011;59323;50.874;7.028;2022-11-14T17:56:02;17.48;;;8.70;;
71503;SDS011;59323;50.874;7.028;2022-11-14T17:58:28;18.70;;;9.00;;
71503;SDS011;59323;50.874;7.028;2022-11-14T18:00:55;18.17;;;8.35;;
71503;SDS011;59323;50.874;7.028;2022-11-14T18:03:22;21.08;;;8.52;;
71503;SDS011;59323;50.874;7.028;2022-11-14T18:05:48;17.30;;;8.27;;
71503;SDS011;59323;50.874;7.028;2022-11-14T18:08:14;19.00;;;9.27;;
71503;SDS011;59323;50.874;7.028;2022-11-14T18:10:39;16.67;;;8.17;;
71503;SDS011;59323;50.874;7.028;2022-11-14T18:13:04;20.02;;;8.73;;
71503;SDS011;59323;50.874;7.028;2022-11-14T18:15:30;18.87;;;8.60;;
71503;SDS011;59323;50.874;7.028;2022-11-14T18:17:56;15.55;;;8.00;;
71503;SDS011;59323;50.874;7.028;2022-11-14T18:20:22;19.20;;;8.70;;
71503;SDS011;59323;50.874;7.028;2022-11-14T18:22:48;17.73;;;8.52;;
71503;SDS011;59323;50.874;7.028;2022-11-14T18:25:14;18.40;;;9.83;;
71503;SDS011;59323;50.874;7.028;2022-11-14T18:27:39;19.90;;;10.10;;
71503;SDS011;59323;50.874;7.028;2022-11-14T18:30:05;16.83;;;9.07;;
71503;SDS011;59323;50.874;7.028;2022-11-14T18:32:31;17.42;;;8.73;;
71503;SDS011;59323;50.874;7.028;2022-11-14T18:34:56;18.13;;;8.50;;
71503;SDS011;59323;50.874;7.028;2022-11-14T18:37:24;16.83;;;8.45;;
71503;SDS011;59323;50.874;7.028;2022-11-14T18:39:50;16.57;;;8.10;;